Time;durP1;ratioP1;P1;durP2;ratioP2;P2;SDS_P1;SDS_P2;PMS_P1;PMS_P2;Temp;Humidity;BMP_temperature;BMP_pressure;BME280_temperature;BME280_humidity;BME280_pressure;Samples;Min_cycle;Max_cycle;Signal;HPM_P1;HPM_P2
2022/09/17 09:27:32;;;;;;;11.73;3.55;;;;;;;21.11;46.24;101597.38;4904029;23;20132;-80
2022/09/17 10:36:44;;;;;;;9.38;2.38;;;;;;;21.01;43.92;101595.75;3932560;27;20064;-82
2022/09/17 10:42:16;;;;;;;7.15;2.20;;;;;;;20.91;43.25;101591.53;4926541;29;20048;-81
2022/09/17 10:44:57;;;;;;;6.47;2.10;;;;;;;20.92;43.41;101591.50;4916783;29;20052;-80
2022/09/17 10:50:03;;;;;;;6.43;2.22;;;;;;;20.80;42.94;101575.09;4920615;29;20060;-81
2022/09/17 11:10:30;;;;;;;8.25;1.90;;;;;;;20.87;42.64;101603.78;4935292;29;20046;-81
2022/09/17 11:13:09;;;;;;;7.25;2.13;;;;;;;20.85;42.88;101576.75;4915667;29;20071;-81
2022/09/17 11:16:21;;;;;;;12.68;2.30;;;;;;;20.89;43.33;101582.84;4903437;29;20052;-81
2022/09/17 12:07:47;;;;;;;5.50;1.98;;;;;;;20.97;44.41;101604.56;5691899;23;20048;-81
2022/09/17 12:30:10;;;;;;;8.65;2.30;;;;;;;21.14;43.55;101605.22;4893676;29;20052;-81
2022/09/17 13:39:51;;;;;;;10.23;2.17;;;;;;;19.05;58.75;101614.63;5142308;27;20402;-83
2022/09/17 13:42:27;;;;;;;8.77;2.22;;;;;;;18.96;62.15;101622.44;5089049;28;20070;-80
2022/09/17 13:45:01;;;;;;;12.25;2.42;;;;;;;18.76;60.97;101617.25;5109164;28;20054;-83
2022/09/17 13:47:34;;;;;;;11.20;2.20;;;;;;;18.79;59.39;101617.31;5106967;28;20048;-81
2022/09/17 13:50:05;;;;;;;8.73;1.85;;;;;;;18.78;63.68;101612.94;5108828;28;20553;-82
2022/09/17 13:52:37;;;;;;;13.57;2.42;;;;;;;18.63;63.77;101637.25;5124008;28;20056;-87
2022/09/17 13:55:04;;;;;;;11.52;2.45;;;;;;;18.78;61.31;101630.34;5109445;28;20043;-83
2022/09/17 13:57:32;;;;;;;9.18;1.88;;;;;;;18.85;60.43;101627.69;5107002;28;20039;-83
2022/09/17 13:59:59;;;;;;;8.55;1.90;;;;;;;18.85;60.62;101629.44;5092131;28;20336;-77
2022/09/17 14:02:29;;;;;;;10.05;2.20;;;;;;;19.49;53.84;101623.13;5082257;28;20052;-76
2022/09/17 14:07:49;;;;;;;14.60;2.17;;;;;;;20.07;53.41;101627.16;5123467;28;20115;-80
2022/09/17 14:10:15;;;;;;;11.52;2.28;;;;;;;20.17;51.47;101625.34;5108323;28;20071;-80
2022/09/17 14:12:43;;;;;;;6.65;1.85;;;;;;;20.35;48.77;101618.19;5105674;28;20477;-76
2022/09/17 14:17:50;;;;;;;9.52;2.30;;;;;;;20.35;53.20;101630.41;5125048;28;20044;-77
2022/09/17 14:20:20;;;;;;;12.70;2.50;;;;;;;20.26;50.71;101626.13;5074606;28;20124;-77
2022/09/17 14:22:53;;;;;;;10.23;2.33;;;;;;;20.34;51.55;101623.47;5103995;28;20075;-80
2022/09/17 14:25:27;;;;;;;14.45;2.70;;;;;;;20.28;51.16;101621.75;5104478;28;20050;-79
2022/09/17 14:27:58;;;;;;;10.07;2.50;;;;;;;20.24;51.58;101632.25;5126502;28;20043;-80
2022/09/17 14:30:32;;;;;;;10.45;2.22;;;;;;;20.29;51.55;101618.25;5106115;28;20067;-80
2022/09/17 14:35:44;;;;;;;12.70;2.30;;;;;;;20.28;49.95;101629.59;5124938;28;20085;-78
2022/09/17 14:40:46;;;;;;;10.63;2.47;;;;;;;20.24;50.01;101620.03;5124780;28;21180;-78
2022/09/17 14:45:41;;;;;;;12.60;2.40;;;;;;;20.21;52.25;101627.03;5124069;28;21143;-84
2022/09/17 14:50:40;;;;;;;11.70;2.35;;;;;;;20.29;49.80;101636.53;5109035;28;20040;-82
2022/09/17 14:55:40;;;;;;;12.50;2.33;;;;;;;19.97;48.44;101649.88;5110633;28;20156;-82
2022/09/17 15:00:51;;;;;;;10.90;2.80;;;;;;;20.17;52.74;101633.19;5112334;28;20051;-83
2022/09/17 15:03:22;;;;;;;12.57;2.58;;;;;;;20.03;50.64;101630.66;5112273;28;20207;-84
2022/09/17 15:05:49;;;;;;;9.32;2.38;;;;;;;19.85;52.14;101636.88;5076413;28;20108;-85
2022/09/17 15:08:23;;;;;;;10.68;2.10;;;;;;;19.79;49.11;101629.94;5095282;28;20048;-83
2022/09/17 15:10:55;;;;;;;11.45;2.30;;;;;;;19.67;52.82;101640.44;5090194;28;20052;-84
2022/09/17 15:13:37;;;;;;;7.78;2.22;;;;;;;19.63;52.62;101636.09;5109070;28;20051;-85
2022/09/17 15:18:48;;;;;;;10.75;2.25;;;;;;;19.59;53.30;101637.00;5110667;28;21301;-83
2022/09/17 15:23:41;;;;;;;10.38;2.05;;;;;;;19.52;56.09;101638.78;5110605;28;21541;-84
2022/09/17 15:26:06;;;;;;;6.93;1.95;;;;;;;19.46;52.64;101637.03;5077480;28;20048;-84
2022/09/17 15:28:38;;;;;;;11.38;2.35;;;;;;;19.47;55.45;101651.84;5074954;28;20133;-85
2022/09/17 15:31:05;;;;;;;9.43;2.25;;;;;;;19.53;55.04;101646.59;5090921;28;20044;-83
2022/09/17 15:33:32;;;;;;;10.57;2.33;;;;;;;19.53;54.11;101653.53;5074193;28;20594;-84
2022/09/17 15:36:06;;;;;;;7.55;2.25;;;;;;;19.58;55.40;101658.78;5094294;28;20044;-86
2022/09/17 15:38:32;;;;;;;9.93;2.40;;;;;;;19.51;54.74;101661.41;5092909;28;20051;-85
2022/09/17 15:41:12;;;;;;;9.63;2.13;;;;;;;19.49;56.46;101680.56;5081490;28;20043;-87
2022/09/17 15:43:40;;;;;;;8.82;2.10;;;;;;;19.40;55.75;101665.81;5112149;28;20071;-86
2022/09/17 15:48:40;;;;;;;11.45;2.47;;;;;;;19.51;55.34;101639.63;5118027;28;20071;-87
2022/09/17 15:53:51;;;;;;;14.85;2.80;;;;;;;19.71;55.13;101635.22;5110706;28;21166;-87
2022/09/17 15:56:20;;;;;;;22.35;4.82;;;;;;;19.80;56.79;101641.28;5090144;28;20048;-84
2022/09/17 15:58:45;;;;;;;24.63;6.88;;;;;;;19.82;56.10;101639.53;5092930;28;20051;-87
2022/09/17 16:03:39;;;;;;;13.10;3.55;;;;;;;19.84;57.81;101638.63;5093609;28;20123;-88
2022/09/17 16:06:15;;;;;;;15.85;3.60;;;;;;;19.84;55.96;101635.16;5094796;28;20052;-85
2022/09/17 16:08:41;;;;;;;9.32;3.00;;;;;;;19.78;58.28;101640.41;5079535;28;20173;-88
2022/09/17 16:11:06;;;;;;;13.00;3.55;;;;;;;19.77;58.03;101646.50;5040661;28;20055;-84
2022/09/17 16:13:32;;;;;;;14.07;3.65;;;;;;;19.72;58.62;101654.34;5040394;28;20028;-82
2022/09/17 16:15:57;;;;;;;10.40;3.60;;;;;;;19.72;58.11;101670.03;5058740;28;20129;-79
2022/09/17 16:18:23;;;;;;;9.90;3.33;;;;;;;19.71;58.90;101670.91;5070568;28;20129;-77
2022/09/17 16:20:48;;;;;;;12.15;3.53;;;;;;;19.72;59.32;101677.88;5055653;28;20190;-78
2022/09/17 16:23:13;;;;;;;10.77;3.30;;;;;;;19.71;60.75;101676.16;5039266;28;20059;-80
2022/09/17 16:25:40;;;;;;;14.40;3.63;;;;;;;19.71;60.00;101674.41;5036769;28;20047;-78
2022/09/17 16:28:11;;;;;;;12.55;3.30;;;;;;;19.73;60.64;101669.16;5072321;28;20032;-78
2022/09/17 16:30:41;;;;;;;9.77;3.03;;;;;;;19.73;60.30;101667.41;5069889;28;20079;-79
2022/09/17 16:33:10;;;;;;;9.38;3.15;;;;;;;19.73;60.67;101663.94;5090646;28;20032;-78
2022/09/17 16:35:37;;;;;;;10.23;2.72;;;;;;;19.75;61.06;101663.91;5070044;28;21058;-79
2022/09/17 16:38:02;;;;;;;10.10;2.95;;;;;;;19.75;60.88;101663.91;5055916;28;20048;-78
2022/09/17 16:40:28;;;;;;;9.98;2.85;;;;;;;19.75;60.75;101653.47;5053394;28;20562;-79
2022/09/17 16:42:53;;;;;;;10.63;2.63;;;;;;;19.76;61.12;101661.31;5072101;28;20039;-78
2022/09/17 16:45:19;;;;;;;9.48;2.80;;;;;;;19.79;60.99;101661.28;5037238;28;20046;-79
2022/09/17 16:47:44;;;;;;;10.23;2.97;;;;;;;19.78;61.51;101648.25;5037761;28;20040;-79
2022/09/17 16:50:15;;;;;;;8.05;2.92;;;;;;;19.79;61.73;101653.44;5055142;28;20052;-79
2022/09/17 16:52:41;;;;;;;7.95;2.80;;;;;;;19.79;61.96;101653.44;5108465;28;20069;-80
2022/09/17 16:55:08;;;;;;;11.15;3.05;;;;;;;19.79;61.40;101663.03;5092258;28;20114;-80
2022/09/17 16:57:33;;;;;;;8.93;2.63;;;;;;;19.79;62.23;101648.22;5090198;28;20066;-79
2022/09/17 16:59:59;;;;;;;7.35;2.33;;;;;;;19.82;60.66;101650.84;5092395;28;20047;-79
2022/09/17 17:02:25;;;;;;;13.57;2.75;;;;;;;19.84;62.97;101637.78;5090470;28;20052;-91
2022/09/17 17:04:50;;;;;;;37.40;8.52;;;;;;;19.87;61.64;101635.13;5092858;28;20113;-78
2022/09/17 17:07:16;;;;;;;76.80;19.52;;;;;;;19.89;61.40;101625.53;5075297;28;20139;-80
2022/09/17 17:09:41;;;;;;;76.72;18.70;;;;;;;19.90;60.89;101625.53;5060305;28;20052;-81
2022/09/17 17:12:07;;;;;;;65.65;16.23;;;;;;;19.90;61.21;101622.94;5051838;28;20447;-80
2022/09/17 17:14:33;;;;;;;45.13;12.25;;;;;;;19.87;62.13;101627.28;5070799;28;20396;-78
2022/09/17 17:16:58;;;;;;;37.67;10.43;;;;;;;19.85;62.08;101673.44;5078242;28;20045;-79
2022/09/17 17:19:24;;;;;;;33.03;10.70;;;;;;;19.85;62.08;101644.72;5053458;28;20041;-79
2022/09/17 17:21:51;;;;;;;31.50;9.45;;;;;;;19.84;61.03;101636.03;5076888;28;20051;-78
2022/09/17 17:24:17;;;;;;;28.65;8.95;;;;;;;19.87;61.21;101645.56;5109597;28;20065;-81
2022/09/17 17:26:42;;;;;;;28.42;8.75;;;;;;;19.97;58.71;101638.53;5108153;28;20055;-78
2022/09/17 17:29:08;;;;;;;28.25;8.32;;;;;;;20.03;60.51;101648.94;5074710;28;20063;-79
2022/09/17 17:31:34;;;;;;;27.90;8.25;;;;;;;20.05;59.61;101644.56;5088965;28;20054;-81
2022/09/17 17:33:59;;;;;;;26.55;6.95;;;;;;;20.05;59.84;101647.19;5074712;28;20039;-78
2022/09/17 17:36:25;;;;;;;23.17;7.53;;;;;;;20.05;60.37;101642.81;5089221;28;20405;-76
2022/09/17 17:38:55;;;;;;;27.60;7.65;;;;;;;20.04;59.46;101630.66;5074320;28;20032;-79
2022/09/17 17:41:24;;;;;;;23.30;7.10;;;;;;;20.06;59.98;101643.72;5072928;28;20104;-77
2022/09/17 17:43:51;;;;;;;27.27;6.75;;;;;;;20.08;59.77;101636.75;5091897;28;20032;-77
2022/09/17 17:46:16;;;;;;;23.35;6.80;;;;;;;20.06;60.98;101636.75;5108932;28;20052;-79
2022/09/17 17:48:42;;;;;;;22.10;6.25;;;;;;;20.06;58.26;101623.66;5073178;28;20148;-77
2022/09/17 17:51:09;;;;;;;24.05;6.53;;;;;;;20.06;60.64;101636.75;5091366;28;20039;-78
2022/09/17 17:53:35;;;;;;;17.30;5.90;;;;;;;20.05;58.62;101632.38;5048582;28;1151041;-77
2022/09/17 17:56:05;;;;;;;17.20;5.82;;;;;;;20.04;60.79;101633.28;5074425;28;20169;-77
2022/09/17 17:58:32;;;;;;;18.92;5.55;;;;;;;20.05;60.35;101648.06;5089048;28;20050;-77
2022/09/17 18:00:58;;;;;;;17.60;5.70;;;;;;;20.06;60.60;101635.88;5091116;28;20055;-77
2022/09/17 18:03:26;;;;;;;15.85;5.60;;;;;;;20.05;60.30;101629.75;5072558;28;20043;-79
2022/09/17 18:05:55;;;;;;;16.20;5.25;;;;;;;20.06;60.33;101633.28;5074256;28;20137;-78
2022/09/17 18:08:23;;;;;;;19.55;5.65;;;;;;;20.05;59.61;101629.75;5072095;28;20054;-77
2022/09/17 18:10:58;;;;;;;16.30;5.45;;;;;;;20.05;58.86;101636.75;5073949;28;20040;-78
2022/09/17 18:13:23;;;;;;;12.75;4.97;;;;;;;20.06;60.41;101636.75;5088777;28;20071;-79
2022/09/17 18:15:53;;;;;;;12.32;5.00;;;;;;;20.05;59.35;101629.75;5072235;28;20079;-79
2022/09/17 18:18:19;;;;;;;13.88;4.88;;;;;;;20.06;59.95;101626.28;5080836;28;20051;-78
2022/09/17 18:20:44;;;;;;;15.75;4.95;;;;;;;20.06;60.26;101630.66;5043209;28;20055;-78
2022/09/17 18:23:09;;;;;;;12.18;4.93;;;;;;;20.06;59.48;101633.28;5087130;28;20054;-78
2022/09/17 18:25:35;;;;;;;16.00;5.07;;;;;;;20.06;59.37;101641.09;5091297;28;20705;-79
2022/09/17 18:28:01;;;;;;;14.50;4.95;;;;;;;20.06;59.46;101634.13;5079483;28;20044;-77
2022/09/17 18:30:26;;;;;;;14.02;4.65;;;;;;;20.06;59.18;101634.13;5077554;28;20135;-80
2022/09/17 18:32:52;;;;;;;12.27;4.65;;;;;;;20.08;59.49;101645.44;5097241;28;20056;-77
2022/09/17 18:35:18;;;;;;;11.20;4.28;;;;;;;20.08;58.37;101645.44;5077634;28;20524;-78
2022/09/17 18:37:44;;;;;;;13.80;4.75;;;;;;;20.08;58.88;101661.13;5078022;28;20562;-77
2022/09/17 18:40:10;;;;;;;14.55;4.35;;;;;;;20.09;58.88;101675.03;5084146;28;20163;-76
2022/09/17 18:42:35;;;;;;;11.65;4.97;;;;;;;20.09;59.06;101675.03;5109645;28;20055;-76
2022/09/17 18:45:01;;;;;;;11.75;4.03;;;;;;;20.10;58.06;101679.41;5078194;28;20051;-77
2022/09/17 18:47:26;;;;;;;11.32;4.65;;;;;;;20.10;59.19;101676.78;5091737;28;20040;-76
2022/09/17 18:49:52;;;;;;;12.20;4.00;;;;;;;20.10;60.09;101671.56;5077263;28;20497;-76
2022/09/17 18:52:17;;;;;;;11.40;4.20;;;;;;;20.10;58.86;101677.66;5093315;28;20055;-76
2022/09/17 18:54:44;;;;;;;11.43;4.20;;;;;;;20.11;57.34;101678.50;5075869;28;20523;-78
2022/09/17 18:57:11;;;;;;;9.75;4.00;;;;;;;20.10;58.43;101672.41;5077562;28;20047;-76
2022/09/17 18:59:36;;;;;;;10.60;3.70;;;;;;;20.11;58.64;101675.91;5058444;28;20100;-78
2022/09/17 19:02:01;;;;;;;10.70;4.10;;;;;;;20.12;57.43;101675.00;5067259;28;20495;-77
2022/09/17 19:04:28;;;;;;;10.70;4.28;;;;;;;20.13;58.53;101676.75;5061675;28;20137;-78
2022/09/17 19:06:53;;;;;;;12.98;3.85;;;;;;;20.12;57.69;101675.91;5073858;28;20044;-78
2022/09/17 19:09:19;;;;;;;10.82;4.00;;;;;;;20.12;58.22;101672.38;5072314;28;20059;-76
2022/09/17 19:11:44;;;;;;;9.70;4.05;;;;;;;20.13;57.72;101685.47;5039125;28;20059;-78
2022/09/17 19:14:10;;;;;;;8.65;3.78;;;;;;;20.13;58.01;101679.38;5039915;28;20110;-77
2022/09/17 19:16:35;;;;;;;10.73;3.85;;;;;;;20.14;57.07;101675.84;5054772;28;20077;-77
2022/09/17 19:19:00;;;;;;;8.45;3.58;;;;;;;20.14;57.58;101684.59;5038340;28;20199;-78
2022/09/17 19:21:26;;;;;;;10.50;3.72;;;;;;;20.14;57.27;101679.38;5050258;28;20498;-77
2022/09/17 19:23:51;;;;;;;10.52;3.42;;;;;;;20.15;56.64;101685.47;5076262;28;20455;-79
2022/09/17 19:26:20;;;;;;;10.55;3.80;;;;;;;20.15;57.76;101680.22;5093131;28;20052;-78
2022/09/17 19:28:45;;;;;;;10.40;3.15;;;;;;;20.14;56.63;101689.81;5092438;28;20155;-76
2022/09/17 19:31:14;;;;;;;9.05;3.50;;;;;;;20.16;57.00;101681.09;5093118;28;20134;-76
2022/09/17 19:33:39;;;;;;;8.02;3.30;;;;;;;20.16;56.85;101697.63;5091613;28;20052;-76
2022/09/17 19:36:07;;;;;;;9.50;3.55;;;;;;;20.18;56.67;101715.91;5093004;28;20112;-77
2022/09/17 19:38:33;;;;;;;7.57;3.15;;;;;;;20.17;56.60;101722.03;5109125;28;20051;-76
2022/09/17 19:41:01;;;;;;;7.45;3.30;;;;;;;20.17;56.42;101704.59;5075649;28;20051;-77
2022/09/17 19:43:27;;;;;;;8.15;3.45;;;;;;;20.17;56.79;101696.78;5090965;28;20059;-78
2022/09/17 19:46:00;;;;;;;8.57;3.45;;;;;;;20.18;57.20;101697.63;5076558;28;20409;-77
2022/09/17 19:48:25;;;;;;;5.97;3.13;;;;;;;20.19;55.92;101699.38;5091115;28;20039;-78
2022/09/17 19:50:52;;;;;;;10.52;3.47;;;;;;;20.19;56.21;101696.75;5110902;28;20055;-79
2022/09/17 19:53:17;;;;;;;7.85;3.05;;;;;;;20.17;56.83;101682.84;5075448;28;20043;-79
2022/09/17 19:55:43;;;;;;;7.55;3.13;;;;;;;20.17;55.97;101675.00;5091454;28;20439;-78
2022/09/17 19:58:09;;;;;;;6.50;2.65;;;;;;;20.18;55.70;101672.34;5059401;28;20405;-76
2022/09/17 20:00:34;;;;;;;7.43;2.75;;;;;;;20.16;55.41;101671.50;5064485;28;20731;-76
2022/09/17 20:03:02;;;;;;;6.43;2.97;;;;;;;20.18;55.95;101687.16;5075907;28;20047;-77
2022/09/17 20:05:28;;;;;;;7.68;2.90;;;;;;;20.19;55.61;101697.63;5073901;28;20547;-76
2022/09/17 20:07:53;;;;;;;8.65;2.78;;;;;;;20.19;55.67;101717.66;5076139;28;20043;-76
2022/09/17 20:10:18;;;;;;;5.50;2.67;;;;;;;20.20;56.34;101706.31;5074535;28;20035;-77
2022/09/17 20:12:44;;;;;;;8.38;3.22;;;;;;;20.19;55.60;101687.16;5057976;28;20098;-78
2022/09/17 20:15:09;;;;;;;8.20;3.13;;;;;;;20.20;55.60;101690.66;5075597;28;20047;-77
2022/09/17 20:17:34;;;;;;;5.80;2.95;;;;;;;20.20;55.09;101690.66;5073545;28;21309;-78
2022/09/17 20:20:00;;;;;;;7.00;2.85;;;;;;;20.18;55.39;101685.41;5092768;28;20481;-76
2022/09/17 20:22:26;;;;;;;7.57;2.60;;;;;;;20.21;54.93;101684.53;5073653;28;20508;-77
2022/09/17 20:24:51;;;;;;;5.63;2.55;;;;;;;20.21;55.00;101692.38;5075513;28;20038;-77
2022/09/17 20:27:17;;;;;;;7.40;2.83;;;;;;;20.22;54.43;101688.88;5091638;28;20058;-76
2022/09/17 20:29:42;;;;;;;5.72;2.92;;;;;;;20.22;54.93;101702.81;5074682;28;20082;-77
2022/09/17 20:32:07;;;;;;;6.55;2.70;;;;;;;20.23;54.23;101727.19;5092381;28;20055;-77
2022/09/17 20:34:33;;;;;;;6.25;2.45;;;;;;;20.25;55.16;101730.66;5073402;28;20061;-76
2022/09/17 20:36:59;;;;;;;5.07;2.50;;;;;;;20.26;54.35;101712.38;5075365;28;20100;-77
2022/09/17 20:39:24;;;;;;;4.78;2.25;;;;;;;20.29;54.32;101708.88;5073023;28;20046;-76
2022/09/17 20:41:49;;;;;;;6.97;2.55;;;;;;;20.29;54.03;101699.28;5092136;28;20109;-76
2022/09/17 20:44:16;;;;;;;6.20;2.35;;;;;;;20.29;53.76;101696.66;5075204;28;20075;-76
2022/09/17 20:46:41;;;;;;;9.88;2.60;;;;;;;20.31;54.09;101683.59;5108943;28;20059;-75
2022/09/17 20:49:07;;;;;;;8.45;2.40;;;;;;;20.32;53.86;101691.44;5109878;28;20052;-77
2022/09/17 20:51:32;;;;;;;7.95;2.40;;;;;;;20.33;53.90;101681.84;5072626;28;20131;-75
2022/09/17 20:53:58;;;;;;;5.63;2.38;;;;;;;20.34;53.93;101679.22;5058130;28;20039;-76
2022/09/17 20:56:26;;;;;;;6.70;2.40;;;;;;;20.34;53.74;101687.06;5072950;28;20074;-75
2022/09/17 20:59:07;;;;;;;6.18;2.22;;;;;;;20.34;53.61;101679.22;5091553;28;20473;-76
2022/09/17 21:01:33;;;;;;;7.43;2.10;;;;;;;20.36;53.54;101707.97;5089381;28;20051;-75
2022/09/17 21:03:59;;;;;;;6.05;2.08;;;;;;;20.36;53.67;101705.34;5091799;28;20505;-75
2022/09/17 21:06:30;;;;;;;5.60;2.70;;;;;;;20.37;53.73;101708.84;5089645;28;20066;-75
2022/09/17 21:08:58;;;;;;;4.40;1.83;;;;;;;20.38;53.57;101707.94;5092460;28;20163;-75
2022/09/17 21:11:24;;;;;;;7.05;2.42;;;;;;;20.37;53.63;101703.59;5074054;28;20109;-74
2022/09/17 21:13:50;;;;;;;5.93;2.47;;;;;;;20.37;53.61;101703.59;5110598;28;20059;-76
2022/09/17 21:16:16;;;;;;;6.25;2.40;;;;;;;20.37;53.66;101698.38;5091140;28;20054;-76
2022/09/17 21:18:42;;;;;;;4.82;1.98;;;;;;;20.37;53.59;101700.97;5108527;28;20047;-76
2022/09/17 21:21:10;;;;;;;5.07;2.10;;;;;;;20.39;53.42;101696.63;5091625;28;20451;-74
2022/09/17 21:23:37;;;;;;;5.35;2.20;;;;;;;20.39;53.56;101707.06;5089412;28;20060;-74
2022/09/17 21:26:05;;;;;;;5.78;2.20;;;;;;;20.39;53.38;101699.22;5091663;28;20134;-76
2022/09/17 21:28:33;;;;;;;4.07;2.20;;;;;;;20.38;53.64;101707.94;5089210;28;20492;-76
2022/09/17 21:31:02;;;;;;;5.93;2.20;;;;;;;20.37;53.48;101704.47;5075120;28;20097;-75
2022/09/17 21:33:27;;;;;;;8.13;2.17;;;;;;;20.39;53.84;101707.06;5089456;28;20482;-76
2022/09/17 21:35:53;;;;;;;4.10;1.95;;;;;;;20.37;53.65;101698.38;5109385;28;20113;-76
2022/09/17 21:38:19;;;;;;;5.53;2.35;;;;;;;20.38;53.44;101698.34;5073568;28;20040;-76
2022/09/17 21:41:06;;;;;;;4.18;2.17;;;;;;;20.40;53.42;101700.94;5083261;28;20068;-76
2022/09/17 21:43:33;;;;;;;5.10;2.10;;;;;;;20.39;53.48;101694.00;5070349;28;20554;-75
2022/09/17 21:46:00;;;;;;;4.32;2.10;;;;;;;20.40;53.50;101696.59;5091330;28;20502;-74
2022/09/17 21:48:26;;;;;;;6.15;2.40;;;;;;;20.40;53.40;101693.09;5072474;28;20035;-74
2022/09/17 21:50:52;;;;;;;4.55;1.90;;;;;;;20.40;53.46;101695.72;5091452;28;20052;-77
2022/09/17 21:53:18;;;;;;;6.03;2.03;;;;;;;20.40;53.46;101693.09;5090958;28;20059;-74
2022/09/17 21:55:43;;;;;;;4.18;1.65;;;;;;;20.40;53.25;101686.13;5090649;28;20039;-74
2022/09/17 21:58:08;;;;;;;5.80;1.88;;;;;;;20.40;53.26;101683.50;5074427;28;20142;-76
2022/09/17 22:00:36;;;;;;;4.53;1.98;;;;;;;20.41;53.57;101682.66;5074733;28;20074;-75
2022/09/17 22:03:01;;;;;;;4.68;1.90;;;;;;;20.41;53.18;101687.88;5113790;28;20059;-75
2022/09/17 22:05:26;;;;;;;4.60;1.70;;;;;;;20.40;53.27;101680.91;5074592;28;20051;-74
2022/09/17 22:07:52;;;;;;;5.97;2.05;;;;;;;20.41;53.10;101687.00;5078334;28;20048;-75
2022/09/17 22:10:17;;;;;;;5.25;1.85;;;;;;;20.41;53.33;101690.50;5052054;28;1199310;-73
2022/09/17 22:12:43;;;;;;;3.15;1.52;;;;;;;20.41;53.29;101708.78;5093822;28;20055;-75
2022/09/17 22:15:09;;;;;;;3.30;1.70;;;;;;;20.42;53.11;101720.09;5095059;28;20112;-74
2022/09/17 22:17:35;;;;;;;3.25;1.50;;;;;;;20.42;53.08;101714.88;5076189;28;20051;-74
2022/09/17 22:20:02;;;;;;;4.72;1.63;;;;;;;20.43;53.25;101724.47;5113764;28;20036;-74
2022/09/17 22:22:27;;;;;;;4.35;1.63;;;;;;;20.42;53.13;101712.25;5092922;28;20052;-75
2022/09/17 22:24:53;;;;;;;4.47;1.63;;;;;;;20.43;52.99;101714.88;5078159;28;20184;-73
2022/09/17 22:27:18;;;;;;;5.43;1.77;;;;;;;20.42;53.00;101712.25;5077108;28;20109;-75
2022/09/17 22:29:43;;;;;;;5.93;1.90;;;;;;;20.43;53.22;101725.34;5076729;28;20393;-74
2022/09/17 22:32:09;;;;;;;3.67;1.80;;;;;;;20.43;53.05;101722.72;5077823;28;20392;-77
2022/09/17 22:34:35;;;;;;;3.67;1.52;;;;;;;20.42;53.18;101710.50;5092603;28;20417;-74
2022/09/17 22:37:02;;;;;;;3.42;1.50;;;;;;;20.44;52.99;101715.72;5094589;28;20574;-76
2022/09/17 22:39:27;;;;;;;3.20;1.67;;;;;;;20.45;52.97;101704.41;5075800;28;20044;-75
2022/09/17 22:41:53;;;;;;;3.05;1.38;;;;;;;20.45;53.05;101701.81;5077476;28;20070;-77
2022/09/17 22:44:19;;;;;;;5.68;1.60;;;;;;;20.45;52.88;101700.06;5076485;28;20067;-74
2022/09/17 22:46:47;;;;;;;3.22;1.40;;;;;;;20.47;52.98;101694.78;5076887;28;20451;-75
2022/09/17 22:49:13;;;;;;;3.80;1.52;;;;;;;20.45;52.83;101694.81;5112702;28;20477;-76
2022/09/17 22:51:39;;;;;;;3.70;1.80;;;;;;;20.44;52.81;101695.69;5075692;28;20101;-75
2022/09/17 22:54:05;;;;;;;3.17;1.60;;;;;;;20.45;52.82;101696.56;5094450;28;20039;-75
2022/09/17 22:56:33;;;;;;;13.07;7.28;;;;;;;20.45;52.93;101694.81;5074770;28;20420;-77
2022/09/17 22:58:59;;;;;;;13.82;6.35;;;;;;;20.45;52.71;101688.72;5077211;28;20035;-75
2022/09/17 23:01:29;;;;;;;13.13;4.53;;;;;;;20.45;52.75;101688.72;5091759;28;20051;-77
2022/09/17 23:03:56;;;;;;;7.45;4.03;;;;;;;20.44;52.66;101680.00;5094433;28;20035;-75
2022/09/17 23:06:28;;;;;;;7.70;3.75;;;;;;;20.44;52.86;101679.13;5092504;28;20051;-75
2022/09/17 23:08:54;;;;;;;10.93;3.95;;;;;;;20.45;52.74;101678.28;5093789;28;20096;-77
2022/09/17 23:11:22;;;;;;;9.52;3.80;;;;;;;20.45;52.63;101670.44;5092369;28;20055;-76
2022/09/17 23:13:49;;;;;;;8.45;3.92;;;;;;;20.44;52.61;101687.84;5093470;28;20048;-76
2022/09/17 23:18:40;;;;;;;7.90;3.80;;;;;;;20.44;52.70;101692.22;5091910;28;20127;-77
2022/09/17 23:21:14;;;;;;;6.68;3.35;;;;;;;20.44;52.64;101692.22;5093880;28;20130;-75
2022/09/17 23:23:41;;;;;;;7.50;3.85;;;;;;;20.44;52.63;101677.38;5091515;28;20079;-77
2022/09/17 23:26:10;;;;;;;7.55;3.13;;;;;;;20.45;52.60;101673.03;5093728;28;20043;-76
2022/09/17 23:28:36;;;;;;;6.80;3.35;;;;;;;20.44;52.67;101669.53;5092739;28;20051;-76
2022/09/17 23:33:40;;;;;;;7.07;3.08;;;;;;;20.44;52.48;101669.53;5109880;28;20069;-76
2022/09/17 23:36:08;;;;;;;6.88;3.20;;;;;;;20.44;52.42;101664.31;5076755;28;20134;-76
2022/09/17 23:38:34;;;;;;;6.07;2.80;;;;;;;20.43;52.75;101667.81;5091628;28;20063;-76
2022/09/17 23:41:13;;;;;;;6.40;3.10;;;;;;;20.44;52.44;101666.91;5085280;28;20456;-74
2022/09/17 23:43:40;;;;;;;6.75;2.88;;;;;;;20.43;52.44;101654.75;5091411;28;20050;-74
2022/09/17 23:46:05;;;;;;;6.47;3.13;;;;;;;20.44;52.35;101653.00;5093086;28;20059;-75
2022/09/17 23:48:31;;;;;;;5.40;2.72;;;;;;;20.44;52.48;101645.16;5091171;28;20067;-76
2022/09/17 23:50:56;;;;;;;8.82;2.72;;;;;;;20.44;52.27;101645.16;5059073;28;20554;-74
2022/09/17 23:53:21;;;;;;;7.03;3.05;;;;;;;20.44;52.29;101647.75;5053645;28;20052;-74
2022/09/17 23:55:48;;;;;;;5.57;2.72;;;;;;;20.44;52.25;101647.75;5077245;28;20047;-74
2022/09/17 23:58:13;;;;;;;7.10;2.97;;;;;;;20.44;52.23;101648.63;5093122;28;20101;-74
